sensor_id;sensor_type;location;lat;lon;timestamp;pressure;altitude;pressure_sealevel;temperature
71564;BMP180;59391;52.504;13.438;2022-09-09T00:01:53;100662.00;;;19.60
71564;BMP180;59391;52.504;13.438;2022-09-09T00:04:35;100663.00;;;19.60
71564;BMP180;59391;52.504;13.438;2022-09-09T00:07:28;100676.00;;;19.50
71564;BMP180;59391;52.504;13.438;2022-09-09T00:10:39;100673.00;;;19.50
71564;BMP180;59391;52.504;13.438;2022-09-09T00:13:25;100672.00;;;19.50
71564;BMP180;59391;52.504;13.438;2022-09-09T00:21:45;100670.00;;;19.50
71564;BMP180;59391;52.504;13.438;2022-09-09T00:24:41;100663.00;;;19.40
71564;BMP180;59391;52.504;13.438;2022-09-09T00:27:25;100656.00;;;19.40
71564;BMP180;59391;52.504;13.438;2022-09-09T00:30:22;100665.00;;;19.50
71564;BMP180;59391;52.504;13.438;2022-09-09T00:32:53;100662.00;;;19.50
71564;BMP180;59391;52.504;13.438;2022-09-09T00:35:45;100665.00;;;19.50
71564;BMP180;59391;52.504;13.438;2022-09-09T00:38:26;100658.00;;;19.50
71564;BMP180;59391;52.504;13.438;2022-09-09T00:41:11;100657.00;;;19.40
71564;BMP180;59391;52.504;13.438;2022-09-09T00:43:41;100667.00;;;19.50
71564;BMP180;59391;52.504;13.438;2022-09-09T00:55:48;100656.00;;;19.50
71564;BMP180;59391;52.504;13.438;2022-09-09T00:58:15;100658.00;;;19.50
71564;BMP180;59391;52.504;13.438;2022-09-09T01:00:47;100651.00;;;19.50
71564;BMP180;59391;52.504;13.438;2022-09-09T01:03:34;100659.00;;;19.50
71564;BMP180;59391;52.504;13.438;2022-09-09T01:11:59;100667.00;;;19.50
71564;BMP180;59391;52.504;13.438;2022-09-09T01:14:39;100674.00;;;19.50
71564;BMP180;59391;52.504;13.438;2022-09-09T01:17:32;100662.00;;;19.50
71564;BMP180;59391;52.504;13.438;2022-09-09T01:23:33;100665.00;;;19.50
71564;BMP180;59391;52.504;13.438;2022-09-09T01:26:18;100676.00;;;19.40
71564;BMP180;59391;52.504;13.438;2022-09-09T01:28:50;100678.00;;;19.40
71564;BMP180;59391;52.504;13.438;2022-09-09T01:31:40;100669.00;;;19.40
71564;BMP180;59391;52.504;13.438;2022-09-09T01:34:15;100663.00;;;19.40
71564;BMP180;59391;52.504;13.438;2022-09-09T01:36:59;100670.00;;;19.40
71564;BMP180;59391;52.504;13.438;2022-09-09T01:39:27;100674.00;;;19.40
71564;BMP180;59391;52.504;13.438;2022-09-09T01:41:54;100664.00;;;19.40
71564;BMP180;59391;52.504;13.438;2022-09-09T01:44:21;100650.00;;;19.40
71564;BMP180;59391;52.504;13.438;2022-09-09T01:46:47;100641.00;;;19.40
71564;BMP180;59391;52.504;13.438;2022-09-09T01:49:13;100655.00;;;19.40
71564;BMP180;59391;52.504;13.438;2022-09-09T01:51:40;100669.00;;;19.40
71564;BMP180;59391;52.504;13.438;2022-09-09T01:54:07;100644.00;;;19.40
71564;BMP180;59391;52.504;13.438;2022-09-09T01:57:19;100660.00;;;19.30
71564;BMP180;59391;52.504;13.438;2022-09-09T02:03:09;100656.00;;;19.20
71564;BMP180;59391;52.504;13.438;2022-09-09T02:05:41;100648.00;;;19.20
71564;BMP180;59391;52.504;13.438;2022-09-09T02:08:15;100665.00;;;19.20
71564;BMP180;59391;52.504;13.438;2022-09-09T02:10:55;100661.00;;;19.20
71564;BMP180;59391;52.504;13.438;2022-09-09T02:13:22;100668.00;;;19.20
71564;BMP180;59391;52.504;13.438;2022-09-09T02:16:12;100680.00;;;19.20
71564;BMP180;59391;52.504;13.438;2022-09-09T02:18:57;100673.00;;;19.10
71564;BMP180;59391;52.504;13.438;2022-09-09T02:21:28;100670.00;;;19.10
71564;BMP180;59391;52.504;13.438;2022-09-09T02:23:56;100665.00;;;19.10
71564;BMP180;59391;52.504;13.438;2022-09-09T02:26:25;100679.00;;;19.10
71564;BMP180;59391;52.504;13.438;2022-09-09T02:28:55;100674.00;;;19.10
71564;BMP180;59391;52.504;13.438;2022-09-09T02:31:24;100672.00;;;19.10
71564;BMP180;59391;52.504;13.438;2022-09-09T02:34:00;100669.00;;;19.10
71564;BMP180;59391;52.504;13.438;2022-09-09T02:36:31;100675.00;;;19.10
71564;BMP180;59391;52.504;13.438;2022-09-09T02:38:59;100672.00;;;19.10
71564;BMP180;59391;52.504;13.438;2022-09-09T02:41:38;100672.00;;;19.10
71564;BMP180;59391;52.504;13.438;2022-09-09T02:44:17;100675.00;;;19.10
71564;BMP180;59391;52.504;13.438;2022-09-09T02:47:10;100669.00;;;19.10
71564;BMP180;59391;52.504;13.438;2022-09-09T02:50:13;100660.00;;;19.00
71564;BMP180;59391;52.504;13.438;2022-09-09T02:53:16;100660.00;;;19.00
71564;BMP180;59391;52.504;13.438;2022-09-09T02:55:51;100657.00;;;19.00
71564;BMP180;59391;52.504;13.438;2022-09-09T02:58:20;100662.00;;;19.00
71564;BMP180;59391;52.504;13.438;2022-09-09T03:00:49;100666.00;;;19.00
71564;BMP180;59391;52.504;13.438;2022-09-09T03:03:16;100666.00;;;19.00
71564;BMP180;59391;52.504;13.438;2022-09-09T03:05:44;100668.00;;;19.10
71564;BMP180;59391;52.504;13.438;2022-09-09T03:08:10;100642.00;;;19.00
71564;BMP180;59391;52.504;13.438;2022-09-09T03:10:36;100679.00;;;19.00
71564;BMP180;59391;52.504;13.438;2022-09-09T03:13:03;100681.00;;;19.00
71564;BMP180;59391;52.504;13.438;2022-09-09T03:15:32;100671.00;;;19.00
71564;BMP180;59391;52.504;13.438;2022-09-09T03:17:58;100685.00;;;19.00
71564;BMP180;59391;52.504;13.438;2022-09-09T03:20:26;100688.00;;;19.00
71564;BMP180;59391;52.504;13.438;2022-09-09T03:22:56;100692.00;;;19.00
71564;BMP180;59391;52.504;13.438;2022-09-09T03:25:22;100687.00;;;19.00
71564;BMP180;59391;52.504;13.438;2022-09-09T03:27:53;100693.00;;;18.90
71564;BMP180;59391;52.504;13.438;2022-09-09T03:30:29;100697.00;;;18.90
71564;BMP180;59391;52.504;13.438;2022-09-09T03:32:55;100699.00;;;18.90
71564;BMP180;59391;52.504;13.438;2022-09-09T03:35:21;100715.00;;;18.90
71564;BMP180;59391;52.504;13.438;2022-09-09T03:37:47;100683.00;;;18.90
71564;BMP180;59391;52.504;13.438;2022-09-09T03:40:13;100686.00;;;18.90
71564;BMP180;59391;52.504;13.438;2022-09-09T03:42:39;100675.00;;;18.90
71564;BMP180;59391;52.504;13.438;2022-09-09T03:45:08;100684.00;;;18.90
71564;BMP180;59391;52.504;13.438;2022-09-09T03:47:35;100693.00;;;18.90
71564;BMP180;59391;52.504;13.438;2022-09-09T03:50:01;100698.00;;;18.90
71564;BMP180;59391;52.504;13.438;2022-09-09T03:52:26;100694.00;;;18.90
71564;BMP180;59391;52.504;13.438;2022-09-09T03:54:53;100708.00;;;18.90
71564;BMP180;59391;52.504;13.438;2022-09-09T03:57:20;100691.00;;;18.80
71564;BMP180;59391;52.504;13.438;2022-09-09T03:59:46;100702.00;;;18.80
71564;BMP180;59391;52.504;13.438;2022-09-09T04:02:12;100687.00;;;18.70
71564;BMP180;59391;52.504;13.438;2022-09-09T04:04:38;100692.00;;;18.70
71564;BMP180;59391;52.504;13.438;2022-09-09T04:07:03;100691.00;;;18.70
71564;BMP180;59391;52.504;13.438;2022-09-09T04:09:32;100691.00;;;18.60
71564;BMP180;59391;52.504;13.438;2022-09-09T04:11:58;100681.00;;;18.70
71564;BMP180;59391;52.504;13.438;2022-09-09T04:14:24;100670.00;;;18.60
71564;BMP180;59391;52.504;13.438;2022-09-09T04:16:53;100680.00;;;18.70
71564;BMP180;59391;52.504;13.438;2022-09-09T04:19:18;100682.00;;;18.70
71564;BMP180;59391;52.504;13.438;2022-09-09T04:21:44;100674.00;;;18.70
71564;BMP180;59391;52.504;13.438;2022-09-09T04:24:10;100683.00;;;18.70
71564;BMP180;59391;52.504;13.438;2022-09-09T04:26:36;100678.00;;;18.70
71564;BMP180;59391;52.504;13.438;2022-09-09T04:29:03;100688.00;;;18.70
71564;BMP180;59391;52.504;13.438;2022-09-09T04:31:29;100704.00;;;18.70
71564;BMP180;59391;52.504;13.438;2022-09-09T04:33:55;100705.00;;;18.70
71564;BMP180;59391;52.504;13.438;2022-09-09T04:36:22;100705.00;;;18.70
71564;BMP180;59391;52.504;13.438;2022-09-09T04:38:47;100705.00;;;18.70
71564;BMP180;59391;52.504;13.438;2022-09-09T04:41:15;100708.00;;;18.70
71564;BMP180;59391;52.504;13.438;2022-09-09T04:43:42;100713.00;;;18.70
71564;BMP180;59391;52.504;13.438;2022-09-09T04:46:08;100702.00;;;18.70
71564;BMP180;59391;52.504;13.438;2022-09-09T04:48:34;100695.00;;;18.70
71564;BMP180;59391;52.504;13.438;2022-09-09T04:51:03;100708.00;;;18.70
71564;BMP180;59391;52.504;13.438;2022-09-09T04:53:30;100708.00;;;18.70
71564;BMP180;59391;52.504;13.438;2022-09-09T04:56:12;100724.00;;;18.70
71564;BMP180;59391;52.504;13.438;2022-09-09T04:58:39;100727.00;;;18.70
71564;BMP180;59391;52.504;13.438;2022-09-09T05:01:19;100726.00;;;18.70
71564;BMP180;59391;52.504;13.438;2022-09-09T05:03:57;100718.00;;;18.70
71564;BMP180;59391;52.504;13.438;2022-09-09T05:06:23;100729.00;;;18.70
71564;BMP180;59391;52.504;13.438;2022-09-09T05:08:49;100683.00;;;18.70
71564;BMP180;59391;52.504;13.438;2022-09-09T05:11:21;100687.00;;;18.80
71564;BMP180;59391;52.504;13.438;2022-09-09T05:13:48;100682.00;;;18.80
71564;BMP180;59391;52.504;13.438;2022-09-09T05:16:16;100647.00;;;18.50
71564;BMP180;59391;52.504;13.438;2022-09-09T05:18:42;100730.00;;;18.80
71564;BMP180;59391;52.504;13.438;2022-09-09T05:21:10;100730.00;;;18.90
71564;BMP180;59391;52.504;13.438;2022-09-09T05:23:38;100676.00;;;18.90
71564;BMP180;59391;52.504;13.438;2022-09-09T05:26:05;100684.00;;;18.90
71564;BMP180;59391;52.504;13.438;2022-09-09T05:28:34;100742.00;;;18.90
71564;BMP180;59391;52.504;13.438;2022-09-09T05:31:05;100657.00;;;19.00
71564;BMP180;59391;52.504;13.438;2022-09-09T05:33:34;100725.00;;;18.90
71564;BMP180;59391;52.504;13.438;2022-09-09T05:36:12;100680.00;;;19.00
71564;BMP180;59391;52.504;13.438;2022-09-09T05:38:39;100730.00;;;19.00
71564;BMP180;59391;52.504;13.438;2022-09-09T05:41:07;100704.00;;;19.10
71564;BMP180;59391;52.504;13.438;2022-09-09T05:43:33;100681.00;;;19.10
71564;BMP180;59391;52.504;13.438;2022-09-09T05:46:08;100719.00;;;19.10
71564;BMP180;59391;52.504;13.438;2022-09-09T05:48:37;100714.00;;;19.10
71564;BMP180;59391;52.504;13.438;2022-09-09T05:51:05;100722.00;;;19.10
71564;BMP180;59391;52.504;13.438;2022-09-09T05:53:32;100721.00;;;19.20
71564;BMP180;59391;52.504;13.438;2022-09-09T05:56:09;100744.00;;;19.20
71564;BMP180;59391;52.504;13.438;2022-09-09T05:58:36;100735.00;;;19.20
71564;BMP180;59391;52.504;13.438;2022-09-09T06:01:17;100734.00;;;19.20
71564;BMP180;59391;52.504;13.438;2022-09-09T06:03:45;100736.00;;;19.20
71564;BMP180;59391;52.504;13.438;2022-09-09T06:06:17;100695.00;;;19.20
71564;BMP180;59391;52.504;13.438;2022-09-09T06:08:44;100744.00;;;19.30
71564;BMP180;59391;52.504;13.438;2022-09-09T06:11:22;100745.00;;;19.20
71564;BMP180;59391;52.504;13.438;2022-09-09T06:13:50;100756.00;;;19.20
71564;BMP180;59391;52.504;13.438;2022-09-09T06:16:22;100746.00;;;19.30
71564;BMP180;59391;52.504;13.438;2022-09-09T06:18:51;100757.00;;;19.30
71564;BMP180;59391;52.504;13.438;2022-09-09T06:21:21;100750.00;;;19.40
71564;BMP180;59391;52.504;13.438;2022-09-09T06:23:48;100749.00;;;19.40
71564;BMP180;59391;52.504;13.438;2022-09-09T06:26:19;100750.00;;;19.50
71564;BMP180;59391;52.504;13.438;2022-09-09T06:28:46;100755.00;;;19.50
71564;BMP180;59391;52.504;13.438;2022-09-09T06:31:15;100743.00;;;19.60
71564;BMP180;59391;52.504;13.438;2022-09-09T06:33:48;100741.00;;;19.60
71564;BMP180;59391;52.504;13.438;2022-09-09T06:36:21;100742.00;;;19.60
71564;BMP180;59391;52.504;13.438;2022-09-09T06:38:47;100754.00;;;19.70
71564;BMP180;59391;52.504;13.438;2022-09-09T06:41:16;100754.00;;;19.70
71564;BMP180;59391;52.504;13.438;2022-09-09T06:43:42;100767.00;;;19.80
71564;BMP180;59391;52.504;13.438;2022-09-09T06:46:23;100744.00;;;19.80
71564;BMP180;59391;52.504;13.438;2022-09-09T06:48:49;100757.00;;;19.80
71564;BMP180;59391;52.504;13.438;2022-09-09T06:51:21;100772.00;;;19.80
71564;BMP180;59391;52.504;13.438;2022-09-09T06:53:50;100768.00;;;19.90
71564;BMP180;59391;52.504;13.438;2022-09-09T06:58:42;100761.00;;;19.90
71564;BMP180;59391;52.504;13.438;2022-09-09T07:01:32;100751.00;;;19.90
71564;BMP180;59391;52.504;13.438;2022-09-09T07:03:59;100762.00;;;20.00
71564;BMP180;59391;52.504;13.438;2022-09-09T07:06:29;100752.00;;;20.00
71564;BMP180;59391;52.504;13.438;2022-09-09T07:09:00;100754.00;;;20.10
71564;BMP180;59391;52.504;13.438;2022-09-09T07:11:30;100757.00;;;20.20
71564;BMP180;59391;52.504;13.438;2022-09-09T07:13:58;100763.00;;;20.40
71564;BMP180;59391;52.504;13.438;2022-09-09T07:16:25;100772.00;;;20.50
71564;BMP180;59391;52.504;13.438;2022-09-09T07:18:53;100773.00;;;20.50
71564;BMP180;59391;52.504;13.438;2022-09-09T07:21:24;100761.00;;;20.50
71564;BMP180;59391;52.504;13.438;2022-09-09T07:23:52;100767.00;;;20.60
71564;BMP180;59391;52.504;13.438;2022-09-09T07:26:23;100765.00;;;20.60
71564;BMP180;59391;52.504;13.438;2022-09-09T07:28:49;100772.00;;;20.60
71564;BMP180;59391;52.504;13.438;2022-09-09T07:31:30;100763.00;;;20.70
71564;BMP180;59391;52.504;13.438;2022-09-09T07:33:57;100771.00;;;20.80
71564;BMP180;59391;52.504;13.438;2022-09-09T07:36:44;100773.00;;;21.00
71564;BMP180;59391;52.504;13.438;2022-09-09T07:39:13;100765.00;;;21.10
71564;BMP180;59391;52.504;13.438;2022-09-09T07:41:46;100767.00;;;21.20
71564;BMP180;59391;52.504;13.438;2022-09-09T07:44:19;100763.00;;;21.20
71564;BMP180;59391;52.504;13.438;2022-09-09T07:46:47;100781.00;;;21.40
71564;BMP180;59391;52.504;13.438;2022-09-09T07:49:14;100768.00;;;21.50
71564;BMP180;59391;52.504;13.438;2022-09-09T07:51:44;100777.00;;;21.60
71564;BMP180;59391;52.504;13.438;2022-09-09T07:54:14;100780.00;;;21.70
71564;BMP180;59391;52.504;13.438;2022-09-09T07:56:41;100760.00;;;21.90
71564;BMP180;59391;52.504;13.438;2022-09-09T07:59:08;100778.00;;;22.00
71564;BMP180;59391;52.504;13.438;2022-09-09T08:01:38;100779.00;;;22.20
71564;BMP180;59391;52.504;13.438;2022-09-09T08:04:11;100771.00;;;22.30
71564;BMP180;59391;52.504;13.438;2022-09-09T08:06:45;100783.00;;;22.40
71564;BMP180;59391;52.504;13.438;2022-09-09T08:09:12;100788.00;;;22.40
71564;BMP180;59391;52.504;13.438;2022-09-09T08:11:40;100781.00;;;22.50
71564;BMP180;59391;52.504;13.438;2022-09-09T08:14:08;100774.00;;;22.50
71564;BMP180;59391;52.504;13.438;2022-09-09T08:16:38;100793.00;;;22.60
71564;BMP180;59391;52.504;13.438;2022-09-09T08:19:05;100797.00;;;22.70
71564;BMP180;59391;52.504;13.438;2022-09-09T08:21:34;100796.00;;;22.70
71564;BMP180;59391;52.504;13.438;2022-09-09T08:24:03;100795.00;;;22.80
71564;BMP180;59391;52.504;13.438;2022-09-09T08:26:40;100797.00;;;23.00
71564;BMP180;59391;52.504;13.438;2022-09-09T08:29:09;100790.00;;;23.10
71564;BMP180;59391;52.504;13.438;2022-09-09T08:31:48;100804.00;;;23.20
71564;BMP180;59391;52.504;13.438;2022-09-09T08:34:14;100787.00;;;23.20
71564;BMP180;59391;52.504;13.438;2022-09-09T08:36:48;100792.00;;;23.30
71564;BMP180;59391;52.504;13.438;2022-09-09T08:39:17;100785.00;;;23.40
71564;BMP180;59391;52.504;13.438;2022-09-09T08:47:42;100802.00;;;23.40
71564;BMP180;59391;52.504;13.438;2022-09-09T08:50:36;100801.00;;;23.40
71564;BMP180;59391;52.504;13.438;2022-09-09T08:53:11;100805.00;;;23.40
71564;BMP180;59391;52.504;13.438;2022-09-09T08:55:51;100802.00;;;23.40
71564;BMP180;59391;52.504;13.438;2022-09-09T08:58:23;100804.00;;;23.40
71564;BMP180;59391;52.504;13.438;2022-09-09T09:01:18;100804.00;;;23.40
71564;BMP180;59391;52.504;13.438;2022-09-09T09:04:25;100803.00;;;23.50
71564;BMP180;59391;52.504;13.438;2022-09-09T09:09:57;100812.00;;;24.30
71564;BMP180;59391;52.504;13.438;2022-09-09T09:12:35;100809.00;;;24.80
71564;BMP180;59391;52.504;13.438;2022-09-09T09:15:18;100813.00;;;25.40
71564;BMP180;59391;52.504;13.438;2022-09-09T09:17:44;100805.00;;;26.10
71564;BMP180;59391;52.504;13.438;2022-09-09T09:20:25;100804.00;;;26.50
71564;BMP180;59391;52.504;13.438;2022-09-09T09:22:56;100798.00;;;26.70
71564;BMP180;59391;52.504;13.438;2022-09-09T09:25:35;100805.00;;;26.90
71564;BMP180;59391;52.504;13.438;2022-09-09T09:28:17;100803.00;;;27.00
71564;BMP180;59391;52.504;13.438;2022-09-09T09:31:08;100796.00;;;27.60
71564;BMP180;59391;52.504;13.438;2022-09-09T09:33:53;100779.00;;;28.20
71564;BMP180;59391;52.504;13.438;2022-09-09T09:36:24;100799.00;;;28.70
71564;BMP180;59391;52.504;13.438;2022-09-09T09:38:59;100803.00;;;29.10
71564;BMP180;59391;52.504;13.438;2022-09-09T09:41:34;100801.00;;;29.40
71564;BMP180;59391;52.504;13.438;2022-09-09T09:44:02;100790.00;;;29.40
71564;BMP180;59391;52.504;13.438;2022-09-09T09:46:28;100803.00;;;29.50
71564;BMP180;59391;52.504;13.438;2022-09-09T09:49:05;100795.00;;;29.40
71564;BMP180;59391;52.504;13.438;2022-09-09T09:51:35;100809.00;;;29.50
71564;BMP180;59391;52.504;13.438;2022-09-09T09:54:20;100811.00;;;29.80
71564;BMP180;59391;52.504;13.438;2022-09-09T09:56:48;100804.00;;;29.90
71564;BMP180;59391;52.504;13.438;2022-09-09T09:59:35;100797.00;;;30.10
71564;BMP180;59391;52.504;13.438;2022-09-09T10:02:21;100793.00;;;30.60
71564;BMP180;59391;52.504;13.438;2022-09-09T10:07:41;100798.00;;;32.00
71564;BMP180;59391;52.504;13.438;2022-09-09T10:10:17;100813.00;;;32.50
71564;BMP180;59391;52.504;13.438;2022-09-09T10:13:16;100812.00;;;32.50
71564;BMP180;59391;52.504;13.438;2022-09-09T10:16:02;100775.00;;;32.40
71564;BMP180;59391;52.504;13.438;2022-09-09T10:31:12;100830.00;;;30.70
71564;BMP180;59391;52.504;13.438;2022-09-09T10:36:50;100813.00;;;29.90
71564;BMP180;59391;52.504;13.438;2022-09-09T10:39:37;100810.00;;;29.30
71564;BMP180;59391;52.504;13.438;2022-09-09T10:42:30;100794.00;;;28.90
71564;BMP180;59391;52.504;13.438;2022-09-09T10:51:00;100829.00;;;28.80
71564;BMP180;59391;52.504;13.438;2022-09-09T10:53:51;100809.00;;;29.00
71564;BMP180;59391;52.504;13.438;2022-09-09T10:56:21;100813.00;;;29.60
71564;BMP180;59391;52.504;13.438;2022-09-09T10:59:04;100810.00;;;30.10
71564;BMP180;59391;52.504;13.438;2022-09-09T11:01:41;100823.00;;;30.70
71564;BMP180;59391;52.504;13.438;2022-09-09T11:04:35;100817.00;;;31.20
71564;BMP180;59391;52.504;13.438;2022-09-09T11:07:10;100831.00;;;31.70
71564;BMP180;59391;52.504;13.438;2022-09-09T11:09:49;100822.00;;;32.10
71564;BMP180;59391;52.504;13.438;2022-09-09T11:12:19;100820.00;;;32.60
71564;BMP180;59391;52.504;13.438;2022-09-09T11:14:51;100808.00;;;33.10
71564;BMP180;59391;52.504;13.438;2022-09-09T11:17:26;100820.00;;;33.60
71564;BMP180;59391;52.504;13.438;2022-09-09T11:19:53;100829.00;;;33.80
71564;BMP180;59391;52.504;13.438;2022-09-09T11:25:33;100825.00;;;33.00
71564;BMP180;59391;52.504;13.438;2022-09-09T11:29:21;100822.00;;;32.40
71564;BMP180;59391;52.504;13.438;2022-09-09T11:34:39;100819.00;;;30.80
71564;BMP180;59391;52.504;13.438;2022-09-09T11:37:37;100821.00;;;30.40
71564;BMP180;59391;52.504;13.438;2022-09-09T11:40:27;100816.00;;;30.00
71564;BMP180;59391;52.504;13.438;2022-09-09T11:43:23;100821.00;;;29.70
71564;BMP180;59391;52.504;13.438;2022-09-09T11:45:55;100797.00;;;29.60
71564;BMP180;59391;52.504;13.438;2022-09-09T11:51:08;100797.00;;;28.80
71564;BMP180;59391;52.504;13.438;2022-09-09T11:53:47;100807.00;;;28.50
71564;BMP180;59391;52.504;13.438;2022-09-09T11:56:25;100802.00;;;28.30
71564;BMP180;59391;52.504;13.438;2022-09-09T11:59:03;100805.00;;;28.50
71564;BMP180;59391;52.504;13.438;2022-09-09T12:01:42;100793.00;;;28.50
71564;BMP180;59391;52.504;13.438;2022-09-09T12:07:05;100797.00;;;28.40
71564;BMP180;59391;52.504;13.438;2022-09-09T12:10:02;100797.00;;;29.20
71564;BMP180;59391;52.504;13.438;2022-09-09T12:12:38;100772.00;;;30.00
71564;BMP180;59391;52.504;13.438;2022-09-09T12:17:43;100780.00;;;31.40
71564;BMP180;59391;52.504;13.438;2022-09-09T12:20:17;100773.00;;;32.20
71564;BMP180;59391;52.504;13.438;2022-09-09T12:23:19;100774.00;;;33.00
71564;BMP180;59391;52.504;13.438;2022-09-09T12:26:16;100776.00;;;33.20
71564;BMP180;59391;52.504;13.438;2022-09-09T12:32:27;100772.00;;;32.50
71564;BMP180;59391;52.504;13.438;2022-09-09T12:37:53;100775.00;;;32.00
71564;BMP180;59391;52.504;13.438;2022-09-09T12:40:34;100774.00;;;31.60
71564;BMP180;59391;52.504;13.438;2022-09-09T12:43:14;100759.00;;;31.30
71564;BMP180;59391;52.504;13.438;2022-09-09T12:45:42;100759.00;;;31.10
71564;BMP180;59391;52.504;13.438;2022-09-09T12:48:09;100757.00;;;31.00
71564;BMP180;59391;52.504;13.438;2022-09-09T12:50:51;100748.00;;;30.80
71564;BMP180;59391;52.504;13.438;2022-09-09T12:53:37;100764.00;;;30.60
71564;BMP180;59391;52.504;13.438;2022-09-09T12:56:24;100761.00;;;30.50
71564;BMP180;59391;52.504;13.438;2022-09-09T12:59:01;100759.00;;;30.20
71564;BMP180;59391;52.504;13.438;2022-09-09T13:01:28;100764.00;;;29.90
71564;BMP180;59391;52.504;13.438;2022-09-09T13:03:57;100783.00;;;29.70
71564;BMP180;59391;52.504;13.438;2022-09-09T13:06:26;100763.00;;;29.20
71564;BMP180;59391;52.504;13.438;2022-09-09T13:08:55;100785.00;;;29.10
71564;BMP180;59391;52.504;13.438;2022-09-09T13:11:28;100781.00;;;28.90
71564;BMP180;59391;52.504;13.438;2022-09-09T13:13:56;100782.00;;;28.70
71564;BMP180;59391;52.504;13.438;2022-09-09T13:16:26;100781.00;;;28.60
71564;BMP180;59391;52.504;13.438;2022-09-09T13:18:55;100778.00;;;28.50
71564;BMP180;59391;52.504;13.438;2022-09-09T13:21:35;100762.00;;;28.30
71564;BMP180;59391;52.504;13.438;2022-09-09T13:27:03;100753.00;;;27.80
71564;BMP180;59391;52.504;13.438;2022-09-09T13:29:31;100753.00;;;27.80
71564;BMP180;59391;52.504;13.438;2022-09-09T13:32:06;100759.00;;;27.70
71564;BMP180;59391;52.504;13.438;2022-09-09T13:34:38;100729.00;;;27.80
71564;BMP180;59391;52.504;13.438;2022-09-09T13:37:07;100741.00;;;27.90
71564;BMP180;59391;52.504;13.438;2022-09-09T13:39:52;100749.00;;;28.00
71564;BMP180;59391;52.504;13.438;2022-09-09T13:42:32;100740.00;;;28.00
71564;BMP180;59391;52.504;13.438;2022-09-09T13:45:01;100725.00;;;28.00
71564;BMP180;59391;52.504;13.438;2022-09-09T13:47:34;100730.00;;;27.90
71564;BMP180;59391;52.504;13.438;2022-09-09T13:50:19;100739.00;;;27.80
71564;BMP180;59391;52.504;13.438;2022-09-09T13:52:50;100722.00;;;27.90
71564;BMP180;59391;52.504;13.438;2022-09-09T13:55:18;100731.00;;;28.00
71564;BMP180;59391;52.504;13.438;2022-09-09T13:58:03;100738.00;;;28.00
71564;BMP180;59391;52.504;13.438;2022-09-09T14:00:34;100738.00;;;28.00
71564;BMP180;59391;52.504;13.438;2022-09-09T14:03:00;100736.00;;;28.00
71564;BMP180;59391;52.504;13.438;2022-09-09T14:05:29;100752.00;;;28.00
71564;BMP180;59391;52.504;13.438;2022-09-09T14:07:55;100756.00;;;27.80
71564;BMP180;59391;52.504;13.438;2022-09-09T14:10:20;100751.00;;;27.70
71564;BMP180;59391;52.504;13.438;2022-09-09T14:12:47;100743.00;;;27.50
71564;BMP180;59391;52.504;13.438;2022-09-09T14:15:13;100749.00;;;27.40
71564;BMP180;59391;52.504;13.438;2022-09-09T14:17:39;100742.00;;;27.40
71564;BMP180;59391;52.504;13.438;2022-09-09T14:20:06;100747.00;;;27.50
71564;BMP180;59391;52.504;13.438;2022-09-09T14:22:36;100743.00;;;27.40
71564;BMP180;59391;52.504;13.438;2022-09-09T14:25:03;100755.00;;;27.20
71564;BMP180;59391;52.504;13.438;2022-09-09T14:27:28;100749.00;;;27.10
71564;BMP180;59391;52.504;13.438;2022-09-09T14:29:55;100751.00;;;27.20
71564;BMP180;59391;52.504;13.438;2022-09-09T14:32:21;100742.00;;;27.40
71564;BMP180;59391;52.504;13.438;2022-09-09T14:34:47;100739.00;;;27.60
71564;BMP180;59391;52.504;13.438;2022-09-09T14:37:16;100736.00;;;27.80
71564;BMP180;59391;52.504;13.438;2022-09-09T14:39:42;100735.00;;;28.00
71564;BMP180;59391;52.504;13.438;2022-09-09T14:42:10;100732.00;;;28.20
71564;BMP180;59391;52.504;13.438;2022-09-09T14:44:37;100727.00;;;28.30
71564;BMP180;59391;52.504;13.438;2022-09-09T14:47:07;100737.00;;;28.20
71564;BMP180;59391;52.504;13.438;2022-09-09T14:49:34;100748.00;;;28.00
71564;BMP180;59391;52.504;13.438;2022-09-09T14:52:00;100746.00;;;27.80
71564;BMP180;59391;52.504;13.438;2022-09-09T14:54:26;100747.00;;;27.70
71564;BMP180;59391;52.504;13.438;2022-09-09T14:56:51;100747.00;;;27.50
71564;BMP180;59391;52.504;13.438;2022-09-09T14:59:17;100733.00;;;27.40
71564;BMP180;59391;52.504;13.438;2022-09-09T15:01:43;100749.00;;;27.30
71564;BMP180;59391;52.504;13.438;2022-09-09T15:04:12;100750.00;;;27.30
71564;BMP180;59391;52.504;13.438;2022-09-09T15:06:40;100750.00;;;27.20
71564;BMP180;59391;52.504;13.438;2022-09-09T15:09:08;100759.00;;;27.10
71564;BMP180;59391;52.504;13.438;2022-09-09T15:11:36;100755.00;;;27.10
71564;BMP180;59391;52.504;13.438;2022-09-09T15:14:04;100748.00;;;27.10
71564;BMP180;59391;52.504;13.438;2022-09-09T15:16:30;100750.00;;;27.10
71564;BMP180;59391;52.504;13.438;2022-09-09T15:19:00;100736.00;;;27.20
71564;BMP180;59391;52.504;13.438;2022-09-09T15:21:30;100735.00;;;27.30
71564;BMP180;59391;52.504;13.438;2022-09-09T15:23:57;100729.00;;;27.40
71564;BMP180;59391;52.504;13.438;2022-09-09T15:26:23;100726.00;;;27.50
71564;BMP180;59391;52.504;13.438;2022-09-09T15:28:49;100729.00;;;27.70
71564;BMP180;59391;52.504;13.438;2022-09-09T15:31:26;100735.00;;;27.90
71564;BMP180;59391;52.504;13.438;2022-09-09T15:33:57;100732.00;;;28.00
71564;BMP180;59391;52.504;13.438;2022-09-09T15:36:37;100734.00;;;28.00
71564;BMP180;59391;52.504;13.438;2022-09-09T15:39:08;100732.00;;;28.10
71564;BMP180;59391;52.504;13.438;2022-09-09T15:41:35;100728.00;;;28.10
71564;BMP180;59391;52.504;13.438;2022-09-09T15:44:02;100713.00;;;28.00
71564;BMP180;59391;52.504;13.438;2022-09-09T15:46:33;100715.00;;;28.00